Time;durP1;ratioP1;P1;durP2;ratioP2;P2;SDS_P1;SDS_P2;PMS_P1;PMS_P2;Temp;Humidity;BMP_temperature;BMP_pressure;BME280_temperature;BME280_humidity;BME280_pressure;Samples;Min_cycle;Max_cycle;Signal;HPM_P1;HPM_P2
2023/10/29 00:02:08;;;;;;;;;;;20.00;1.00;;;;;;4953091;29;19982;-57
2023/10/29 00:04:35;;;;;;;;;;;20.00;1.00;;;;;;4952978;29;19966;-55
2023/10/29 00:07:03;;;;;;;;;;;20.00;1.00;;;;;;4953642;29;20362;-57
2023/10/29 00:09:29;;;;;;;;;;;20.00;1.00;;;;;;4951031;29;20365;-57
2023/10/29 00:11:56;;;;;;;;;;;20.00;1.00;;;;;;4953534;29;20219;-55
2023/10/29 00:14:23;;;;;;;;;;;20.00;1.00;;;;;;4953410;29;19982;-58
2023/10/29 00:16:50;;;;;;;;;;;20.00;1.00;;;;;;4953463;29;19981;-58
2023/10/29 00:19:17;;;;;;;;;;;19.90;1.00;;;;;;4953214;29;19934;-59
2023/10/29 00:21:43;;;;;;;;;;;19.90;1.00;;;;;;4953687;29;19957;-58
2023/10/29 00:24:10;;;;;;;;;;;19.90;1.00;;;;;;4953286;29;19950;-58
2023/10/29 00:26:37;;;;;;;;;;;19.90;1.00;;;;;;4955575;28;19989;-59
2023/10/29 00:29:04;;;;;;;;;;;19.90;1.00;;;;;;4956986;29;19989;-57
2023/10/29 00:31:32;;;;;;;;;;;19.90;1.00;;;;;;4939714;29;20305;-58
2023/10/29 00:33:58;;;;;;;;;;;19.80;1.00;;;;;;4939249;29;20381;-56
2023/10/29 00:36:25;;;;;;;;;;;19.80;1.00;;;;;;4939560;29;20021;-59
2023/10/29 00:38:52;;;;;;;;;;;19.80;1.00;;;;;;4956870;28;19926;-56
2023/10/29 00:41:19;;;;;;;;;;;19.80;1.00;;;;;;4956628;29;20338;-56
2023/10/29 00:43:45;;;;;;;;;;;19.80;1.00;;;;;;4939324;29;19926;-57
2023/10/29 00:46:13;;;;;;;;;;;19.80;1.00;;;;;;4956627;29;20025;-55
2023/10/29 00:48:41;;;;;;;;;;;19.70;1.00;;;;;;4955993;29;19926;-58
2023/10/29 00:51:07;;;;;;;;;;;19.70;1.00;;;;;;4957430;28;20266;-58
2023/10/29 00:53:34;;;;;;;;;;;19.70;1.00;;;;;;4939169;29;20384;-57
2023/10/29 00:56:02;;;;;;;;;;;19.70;1.00;;;;;;4955509;29;20013;-58
2023/10/29 00:58:29;;;;;;;;;;;19.70;1.00;;;;;;4939317;29;19926;-58
2023/10/29 01:00:56;;;;;;;;;;;19.60;1.00;;;;;;4938853;29;19926;-57
2023/10/29 01:03:22;;;;;;;;;;;19.60;1.00;;;;;;4938894;29;19961;-57
2023/10/29 01:05:50;;;;;;;;;;;19.60;1.00;;;;;;4956271;28;20467;-56
2023/10/29 01:08:17;;;;;;;;;;;19.60;1.00;;;;;;4956489;29;19926;-57
2023/10/29 01:10:44;;;;;;;;;;;19.60;1.00;;;;;;4938984;29;19930;-57
2023/10/29 01:13:10;;;;;;;;;;;19.50;1.00;;;;;;4936305;29;19926;-58
2023/10/29 01:15:37;;;;;;;;;;;19.50;1.00;;;;;;4938845;29;19931;-58
2023/10/29 01:18:05;;;;;;;;;;;19.50;1.00;;;;;;4948766;29;19936;-58
2023/10/29 01:20:33;;;;;;;;;;;19.50;1.00;;;;;;4953783;28;19926;-57
2023/10/29 01:23:00;;;;;;;;;;;19.50;1.00;;;;;;4938749;29;19972;-57
2023/10/29 01:25:27;;;;;;;;;;;19.50;1.00;;;;;;4938644;29;19958;-58
2023/10/29 01:27:54;;;;;;;;;;;19.50;1.00;;;;;;4955858;29;19926;-56
2023/10/29 01:30:24;;;;;;;;;;;19.50;1.00;;;;;;4938718;29;20001;-57
2023/10/29 01:32:50;;;;;;;;;;;19.50;1.00;;;;;;4938390;29;20496;-57
2023/10/29 01:35:17;;;;;;;;;;;19.50;1.00;;;;;;4938501;29;19927;-57
2023/10/29 01:37:44;;;;;;;;;;;19.50;1.00;;;;;;4937539;29;19932;-58
2023/10/29 01:40:13;;;;;;;;;;;19.50;1.00;;;;;;4938394;29;19978;-57
2023/10/29 01:42:39;;;;;;;;;;;19.50;1.00;;;;;;4938323;29;19926;-57
2023/10/29 01:45:06;;;;;;;;;;;19.50;1.00;;;;;;4955682;29;20423;-56
2023/10/29 01:47:33;;;;;;;;;;;19.50;1.00;;;;;;4936038;29;19958;-56
2023/10/29 01:50:00;;;;;;;;;;;19.40;1.00;;;;;;4955439;29;19934;-58
2023/10/29 01:52:27;;;;;;;;;;;19.40;1.00;;;;;;4955380;29;19934;-58
2023/10/29 01:54:54;;;;;;;;;;;19.40;1.00;;;;;;4937984;29;19926;-57
2023/10/29 01:57:21;;;;;;;;;;;19.40;1.00;;;;;;4955657;29;19960;-56
2023/10/29 01:59:48;;;;;;;;;;;19.40;1.00;;;;;;4937864;29;19934;-59
2023/10/29 02:02:15;;;;;;;;;;;19.40;1.00;;;;;;4938182;29;20401;-55
2023/10/29 02:04:41;;;;;;;;;;;19.40;1.00;;;;;;4937803;29;20041;-57
2023/10/29 02:07:08;;;;;;;;;;;19.40;1.00;;;;;;4938068;29;19935;-56
2023/10/29 02:09:35;;;;;;;;;;;19.40;1.00;;;;;;4937848;29;19927;-57
2023/10/29 02:12:01;;;;;;;;;;;19.30;1.00;;;;;;4937824;29;20438;-56
2023/10/29 02:14:32;;;;;;;;;;;19.30;1.00;;;;;;4937587;29;19978;-56
2023/10/29 02:16:59;;;;;;;;;;;19.30;1.00;;;;;;4937801;29;19981;-59
2023/10/29 02:19:25;;;;;;;;;;;19.30;1.00;;;;;;4937579;29;19974;-56
2023/10/29 02:21:53;;;;;;;;;;;19.30;1.00;;;;;;4954811;29;19926;-58
2023/10/29 02:24:20;;;;;;;;;;;19.30;1.00;;;;;;4954619;29;19933;-59
2023/10/29 02:26:47;;;;;;;;;;;19.30;1.00;;;;;;4954933;29;19972;-56
2023/10/29 02:29:14;;;;;;;;;;;19.30;1.00;;;;;;4935071;29;19926;-56
2023/10/29 02:31:41;;;;;;;;;;;19.20;1.00;;;;;;4954752;29;19954;-57
2023/10/29 02:34:08;;;;;;;;;;;19.20;1.00;;;;;;4937352;29;19934;-57
2023/10/29 02:36:35;;;;;;;;;;;19.20;1.00;;;;;;4952260;29;19931;-58
2023/10/29 02:39:02;;;;;;;;;;;19.20;1.00;;;;;;4937396;29;19966;-59
2023/10/29 02:41:28;;;;;;;;;;;19.20;1.00;;;;;;4937201;29;19933;-58
2023/10/29 02:43:55;;;;;;;;;;;19.20;1.00;;;;;;4935381;29;20440;-58
2023/10/29 02:46:22;;;;;;;;;;;19.20;1.00;;;;;;4937595;29;19926;-58
2023/10/29 02:48:48;;;;;;;;;;;19.20;1.00;;;;;;4937004;29;20444;-56
2023/10/29 02:51:16;;;;;;;;;;;19.20;1.00;;;;;;4951940;28;19965;-58
2023/10/29 02:53:42;;;;;;;;;;;19.10;1.00;;;;;;4954231;29;20042;-59
2023/10/29 02:56:09;;;;;;;;;;;19.10;1.00;;;;;;4954356;29;19973;-58
2023/10/29 02:58:36;;;;;;;;;;;19.10;1.00;;;;;;4934657;29;19931;-56
2023/10/29 03:01:04;;;;;;;;;;;19.10;1.00;;;;;;4937379;29;20328;-59
2023/10/29 03:03:31;;;;;;;;;;;19.10;1.00;;;;;;4936890;29;19938;-57
2023/10/29 03:05:58;;;;;;;;;;;19.10;1.00;;;;;;4937023;29;20338;-56
2023/10/29 03:08:24;;;;;;;;;;;19.10;1.00;;;;;;4937014;29;20395;-56
2023/10/29 03:10:51;;;;;;;;;;;19.10;1.00;;;;;;4936814;29;20403;-57
2023/10/29 03:13:18;;;;;;;;;;;19.00;1.00;;;;;;4953886;29;20369;-56
2023/10/29 03:15:45;;;;;;;;;;;19.00;1.00;;;;;;4936915;29;19933;-57
2023/10/29 03:18:13;;;;;;;;;;;19.00;1.00;;;;;;4953980;29;19927;-58
2023/10/29 03:20:40;;;;;;;;;;;19.00;1.00;;;;;;4936377;29;19930;-58
2023/10/29 03:23:07;;;;;;;;;;;19.00;1.00;;;;;;4936836;29;19953;-57
2023/10/29 03:25:34;;;;;;;;;;;19.00;1.00;;;;;;4936480;29;19949;-57
2023/10/29 03:28:01;;;;;;;;;;;19.00;1.00;;;;;;4936823;29;20377;-56
2023/10/29 03:30:28;;;;;;;;;;;19.00;1.00;;;;;;4936744;29;19926;-56
2023/10/29 03:32:54;;;;;;;;;;;19.00;1.00;;;;;;4936363;29;19978;-58
2023/10/29 03:35:21;;;;;;;;;;;19.00;1.00;;;;;;4936440;29;19927;-56
2023/10/29 03:37:48;;;;;;;;;;;19.00;1.00;;;;;;4936781;29;19926;-56
2023/10/29 03:40:14;;;;;;;;;;;18.90;1.00;;;;;;4936504;29;19926;-58
2023/10/29 03:42:41;;;;;;;;;;;19.00;1.00;;;;;;4953706;29;19926;-56
2023/10/29 03:45:08;;;;;;;;;;;18.90;1.00;;;;;;4936392;29;19933;-56
2023/10/29 03:47:35;;;;;;;;;;;18.90;1.00;;;;;;4953563;29;19977;-57
2023/10/29 03:50:02;;;;;;;;;;;18.90;1.00;;;;;;4953669;29;19969;-56
2023/10/29 03:52:29;;;;;;;;;;;18.90;1.00;;;;;;4953732;29;19973;-57
2023/10/29 03:54:56;;;;;;;;;;;18.90;1.00;;;;;;4953373;29;20359;-56
2023/10/29 03:57:24;;;;;;;;;;;18.90;1.00;;;;;;4936224;29;20407;-54
2023/10/29 03:59:52;;;;;;;;;;;18.90;1.00;;;;;;4936225;28;19968;-58
2023/10/29 04:02:19;;;;;;;;;;;18.80;1.00;;;;;;4937662;29;19937;-57
2023/10/29 04:04:45;;;;;;;;;;;18.80;1.00;;;;;;4940265;29;20413;-58
2023/10/29 04:07:31;;;;;;;;;;;18.80;1.00;;;;;;4957524;28;20405;-58
2023/10/29 04:09:58;;;;;;;;;;;18.80;1.00;;;;;;4954712;29;20273;-58
2023/10/29 04:12:27;;;;;;;;;;;18.80;1.00;;;;;;4957255;29;19926;-58
2023/10/29 04:14:54;;;;;;;;;;;18.80;1.00;;;;;;4939731;29;20029;-59
2023/10/29 04:17:21;;;;;;;;;;;18.80;1.00;;;;;;4957436;29;19926;-58
2023/10/29 04:19:48;;;;;;;;;;;18.80;1.00;;;;;;4957242;29;19981;-58
2023/10/29 04:22:15;;;;;;;;;;;18.80;1.00;;;;;;4957064;29;19933;-58
2023/10/29 04:24:42;;;;;;;;;;;18.80;1.00;;;;;;4956885;29;19926;-59
2023/10/29 04:27:09;;;;;;;;;;;18.80;1.00;;;;;;4957096;29;19927;-58
2023/10/29 04:29:35;;;;;;;;;;;18.80;1.00;;;;;;4956925;29;19926;-58
2023/10/29 04:32:02;;;;;;;;;;;18.80;1.00;;;;;;4957017;29;20378;-58
2023/10/29 04:34:29;;;;;;;;;;;18.80;1.00;;;;;;4956728;29;19930;-59
2023/10/29 04:36:56;;;;;;;;;;;18.70;1.00;;;;;;4956659;29;19926;-55
2023/10/29 04:39:22;;;;;;;;;;;18.70;1.00;;;;;;4956735;29;19926;-59
2023/10/29 04:41:49;;;;;;;;;;;18.70;1.00;;;;;;4956726;29;19948;-58
2023/10/29 04:44:17;;;;;;;;;;;18.70;1.00;;;;;;4939502;29;19970;-58
2023/10/29 04:46:44;;;;;;;;;;;18.70;1.00;;;;;;4956806;29;19953;-59
2023/10/29 04:49:10;;;;;;;;;;;18.70;1.00;;;;;;4956612;29;20017;-59
2023/10/29 04:51:37;;;;;;;;;;;18.70;1.00;;;;;;4956596;29;19933;-58
2023/10/29 04:54:04;;;;;;;;;;;18.70;1.00;;;;;;4956249;29;19930;-58
2023/10/29 04:56:32;;;;;;;;;;;18.70;1.00;;;;;;4956589;29;19938;-59
2023/10/29 04:58:59;;;;;;;;;;;18.70;1.00;;;;;;4956519;29;19927;-55
2023/10/29 05:01:26;;;;;;;;;;;18.70;1.00;;;;;;4956546;29;19937;-59
2023/10/29 05:03:53;;;;;;;;;;;18.60;1.00;;;;;;4956210;29;19948;-59
2023/10/29 05:06:20;;;;;;;;;;;18.60;1.00;;;;;;4956222;29;19926;-59
2023/10/29 05:08:47;;;;;;;;;;;18.60;1.00;;;;;;4956284;29;19937;-58
2023/10/29 05:11:13;;;;;;;;;;;18.60;1.00;;;;;;4956111;28;20030;-59
2023/10/29 05:13:41;;;;;;;;;;;18.60;1.00;;;;;;4955888;29;19926;-59
2023/10/29 05:16:08;;;;;;;;;;;18.60;1.00;;;;;;4956254;29;19954;-59
2023/10/29 05:18:35;;;;;;;;;;;18.60;1.00;;;;;;4956166;29;19949;-58
2023/10/29 05:21:02;;;;;;;;;;;18.60;1.00;;;;;;4953399;29;19926;-57
2023/10/29 05:23:29;;;;;;;;;;;18.60;1.00;;;;;;4956008;29;19927;-59
2023/10/29 05:25:56;;;;;;;;;;;18.60;1.00;;;;;;4956136;29;19930;-59
2023/10/29 05:28:22;;;;;;;;;;;18.50;1.00;;;;;;4955745;29;19926;-58
2023/10/29 05:30:49;;;;;;;;;;;18.50;1.00;;;;;;4955928;29;19927;-58
2023/10/29 05:33:16;;;;;;;;;;;18.50;1.00;;;;;;4955793;29;19927;-58
2023/10/29 05:35:43;;;;;;;;;;;18.50;1.00;;;;;;4951351;29;19927;-56
2023/10/29 05:38:10;;;;;;;;;;;18.50;1.00;;;;;;4953226;29;19935;-55
2023/10/29 05:40:36;;;;;;;;;;;18.50;1.00;;;;;;4955650;29;20308;-54
2023/10/29 05:43:03;;;;;;;;;;;18.50;1.00;;;;;;4952561;29;20300;-56
2023/10/29 05:45:30;;;;;;;;;;;18.50;1.00;;;;;;4955555;29;19932;-58
2023/10/29 05:47:58;;;;;;;;;;;18.50;1.00;;;;;;4955552;29;19985;-56
2023/10/29 05:50:25;;;;;;;;;;;18.50;1.00;;;;;;4955166;29;19926;-57
2023/10/29 05:52:52;;;;;;;;;;;18.50;1.00;;;;;;4955739;29;20389;-57
2023/10/29 05:55:22;;;;;;;;;;;18.50;1.00;;;;;;4955150;29;19926;-58
2023/10/29 05:57:49;;;;;;;;;;;18.50;1.00;;;;;;4955470;29;19933;-52
2023/10/29 06:00:17;;;;;;;;;;;18.40;1.00;;;;;;4950337;29;19933;-55
2023/10/29 06:02:44;;;;;;;;;;;18.40;1.00;;;;;;4951294;29;19926;-56
2023/10/29 06:05:11;;;;;;;;;;;18.40;1.00;;;;;;4954941;29;20025;-56
2023/10/29 06:07:42;;;;;;;;;;;18.40;1.00;;;;;;4955385;29;19938;-57
2023/10/29 06:10:10;;;;;;;;;;;18.40;1.00;;;;;;4953420;29;19933;-57
2023/10/29 06:12:37;;;;;;;;;;;18.40;1.00;;;;;;4955095;29;19984;-57
2023/10/29 06:15:04;;;;;;;;;;;18.40;1.00;;;;;;4948229;29;20037;-57
2023/10/29 06:17:31;;;;;;;;;;;18.40;1.00;;;;;;4953943;28;19927;-57
2023/10/29 06:19:58;;;;;;;;;;;18.40;1.00;;;;;;4954887;29;20413;-56
2023/10/29 06:22:25;;;;;;;;;;;18.40;1.00;;;;;;4954322;29;20336;-56
2023/10/29 06:24:51;;;;;;;;;;;18.40;1.00;;;;;;4953910;28;19927;-57
2023/10/29 06:27:18;;;;;;;;;;;18.40;1.00;;;;;;4954853;29;19934;-57
2023/10/29 06:29:45;;;;;;;;;;;18.40;1.00;;;;;;4954832;29;20341;-57
2023/10/29 06:32:12;;;;;;;;;;;18.40;1.00;;;;;;4954585;29;19990;-57
2023/10/29 06:34:39;;;;;;;;;;;18.40;1.00;;;;;;4937498;29;19938;-56
2023/10/29 06:37:05;;;;;;;;;;;18.40;1.00;;;;;;4954834;29;19926;-57
2023/10/29 06:39:32;;;;;;;;;;;18.30;1.00;;;;;;4954419;29;19931;-56
2023/10/29 06:41:59;;;;;;;;;;;18.40;1.00;;;;;;4954499;29;19986;-57
2023/10/29 06:44:26;;;;;;;;;;;18.30;1.00;;;;;;4953894;28;19941;-56
2023/10/29 06:46:52;;;;;;;;;;;18.30;1.00;;;;;;4953151;28;20377;-58
2023/10/29 06:49:19;;;;;;;;;;;18.30;1.00;;;;;;4953450;29;20055;-56
2023/10/29 06:51:46;;;;;;;;;;;18.30;1.00;;;;;;4954009;28;19933;-55
2023/10/29 06:54:13;;;;;;;;;;;18.30;1.00;;;;;;4951716;29;19927;-57
2023/10/29 06:56:40;;;;;;;;;;;18.30;1.00;;;;;;4954233;29;19934;-56
2023/10/29 06:59:07;;;;;;;;;;;18.30;1.00;;;;;;4937057;29;19930;-57
2023/10/29 07:01:34;;;;;;;;;;;18.30;1.00;;;;;;4954296;28;19958;-57
2023/10/29 07:04:01;;;;;;;;;;;18.30;1.00;;;;;;4937082;29;20300;-57
2023/10/29 07:06:28;;;;;;;;;;;18.30;1.00;;;;;;4954223;29;19930;-56
2023/10/29 07:08:54;;;;;;;;;;;18.30;1.00;;;;;;4950501;29;20407;-57
2023/10/29 07:11:21;;;;;;;;;;;18.30;1.00;;;;;;4951186;29;20301;-58
2023/10/29 07:13:48;;;;;;;;;;;18.30;1.00;;;;;;4953841;29;19937;-57
2023/10/29 07:16:16;;;;;;;;;;;18.30;1.00;;;;;;4952788;28;19926;-57
2023/10/29 07:18:43;;;;;;;;;;;18.30;1.00;;;;;;4953951;29;19927;-57
2023/10/29 07:21:10;;;;;;;;;;;18.30;1.00;;;;;;4948754;29;19934;-58
2023/10/29 07:23:37;;;;;;;;;;;18.30;1.00;;;;;;4951340;29;19962;-56
2023/10/29 07:26:03;;;;;;;;;;;18.30;1.00;;;;;;4952199;29;19930;-54
2023/10/29 07:28:30;;;;;;;;;;;18.30;1.00;;;;;;4954254;28;19949;-57
2023/10/29 07:30:57;;;;;;;;;;;18.30;1.00;;;;;;4954209;29;19926;-59
2023/10/29 07:33:24;;;;;;;;;;;18.30;1.00;;;;;;4954019;29;20270;-58
2023/10/29 07:35:51;;;;;;;;;;;18.30;1.00;;;;;;4953362;29;19973;-57
2023/10/29 07:38:17;;;;;;;;;;;18.30;1.00;;;;;;4954254;29;19982;-56
2023/10/29 07:40:44;;;;;;;;;;;18.30;1.00;;;;;;4954260;29;20312;-56
2023/10/29 07:43:11;;;;;;;;;;;18.30;1.00;;;;;;4954177;29;19931;-57
2023/10/29 07:45:38;;;;;;;;;;;18.20;1.00;;;;;;4946392;29;19926;-56
2023/10/29 07:48:05;;;;;;;;;;;18.20;1.00;;;;;;4955024;28;19928;-54
2023/10/29 07:50:31;;;;;;;;;;;18.20;1.00;;;;;;4951518;29;19931;-58
2023/10/29 07:52:58;;;;;;;;;;;18.20;1.00;;;;;;4950530;29;19927;-55
2023/10/29 07:55:25;;;;;;;;;;;18.20;1.00;;;;;;4949657;29;20021;-58
2023/10/29 07:57:52;;;;;;;;;;;18.20;1.00;;;;;;4953466;29;19927;-56
2023/10/29 08:00:19;;;;;;;;;;;18.20;1.00;;;;;;4954121;29;20300;-51
2023/10/29 08:02:46;;;;;;;;;;;18.20;1.00;;;;;;4953551;29;19934;-50
2023/10/29 08:05:14;;;;;;;;;;;18.20;1.00;;;;;;4953658;29;19942;-52
2023/10/29 08:07:41;;;;;;;;;;;18.20;1.00;;;;;;4951211;29;20401;-55
2023/10/29 08:10:08;;;;;;;;;;;18.20;1.00;;;;;;4949907;29;19986;-55
2023/10/29 08:12:35;;;;;;;;;;;18.20;1.00;;;;;;4953165;29;19927;-56
2023/10/29 08:15:02;;;;;;;;;;;18.20;1.00;;;;;;4949438;29;20402;-53
2023/10/29 08:17:29;;;;;;;;;;;18.20;1.00;;;;;;4953743;29;20305;-55
2023/10/29 08:19:58;;;;;;;;;;;18.20;1.00;;;;;;4953774;29;19949;-56
2023/10/29 08:22:26;;;;;;;;;;;18.20;1.00;;;;;;4949562;29;19926;-56
2023/10/29 08:24:53;;;;;;;;;;;18.20;1.00;;;;;;4953110;29;20021;-56
2023/10/29 08:27:19;;;;;;;;;;;18.20;1.00;;;;;;4953281;29;19969;-54
2023/10/29 08:29:47;;;;;;;;;;;18.20;1.00;;;;;;4953444;29;19927;-57
2023/10/29 08:32:14;;;;;;;;;;;18.20;1.00;;;;;;4953324;29;19933;-57
2023/10/29 08:34:41;;;;;;;;;;;18.20;1.00;;;;;;4945280;29;19926;-57
2023/10/29 08:37:07;;;;;;;;;;;18.20;1.00;;;;;;4953176;29;19926;-57
2023/10/29 08:39:36;;;;;;;;;;;18.20;1.00;;;;;;4952749;29;20396;-53
2023/10/29 08:42:03;;;;;;;;;;;18.20;1.00;;;;;;4953372;29;20280;-57
2023/10/29 08:44:29;;;;;;;;;;;18.20;1.00;;;;;;4952896;29;20344;-56
2023/10/29 08:46:56;;;;;;;;;;;18.20;1.00;;;;;;4954488;28;20010;-51
2023/10/29 08:49:23;;;;;;;;;;;18.20;1.00;;;;;;4952324;29;19927;-52
2023/10/29 08:51:50;;;;;;;;;;;18.20;1.00;;;;;;4956474;29;19938;-56
2023/10/29 08:54:17;;;;;;;;;;;18.20;1.00;;;;;;4954166;28;20456;-55
2023/10/29 08:56:43;;;;;;;;;;;18.20;1.00;;;;;;4948825;28;20388;-52
2023/10/29 08:59:12;;;;;;;;;;;18.20;1.00;;;;;;4948672;29;20345;-56
2023/10/29 09:01:39;;;;;;;;;;;18.20;1.00;;;;;;4954412;28;20025;-53
2023/10/29 09:04:05;;;;;;;;;;;18.20;1.00;;;;;;4950388;28;20397;-54
2023/10/29 09:06:32;;;;;;;;;;;18.20;1.00;;;;;;4955864;29;20384;-53
2023/10/29 09:08:59;;;;;;;;;;;18.20;1.00;;;;;;4953123;29;19927;-52
2023/10/29 09:11:26;;;;;;;;;;;18.20;1.00;;;;;;4956178;29;20349;-54
2023/10/29 09:13:53;;;;;;;;;;;18.20;1.00;;;;;;4956413;29;19958;-53
2023/10/29 09:16:20;;;;;;;;;;;18.20;1.00;;;;;;4956298;28;19974;-55
2023/10/29 09:18:47;;;;;;;;;;;18.20;1.00;;;;;;4956317;28;19970;-57
2023/10/29 09:21:14;;;;;;;;;;;18.20;1.00;;;;;;4956147;28;19933;-53
2023/10/29 09:23:40;;;;;;;;;;;18.20;1.00;;;;;;4956286;29;19926;-56
2023/10/29 09:26:07;;;;;;;;;;;18.20;1.00;;;;;;4956616;28;19927;-53
2023/10/29 09:28:34;;;;;;;;;;;18.20;1.00;;;;;;4955802;28;20308;-57
2023/10/29 09:31:03;;;;;;;;;;;18.20;1.00;;;;;;4955854;28;19937;-56
2023/10/29 09:33:30;;;;;;;;;;;18.20;1.00;;;;;;4954883;28;20029;-51
2023/10/29 09:35:56;;;;;;;;;;;18.20;1.00;;;;;;4954417;28;19926;-55
2023/10/29 09:38:23;;;;;;;;;;;18.20;1.00;;;;;;4950335;29;19934;-52
2023/10/29 09:40:51;;;;;;;;;;;18.20;1.00;;;;;;4954868;29;20436;-51
2023/10/29 09:43:23;;;;;;;;;;;18.20;1.00;;;;;;4946084;29;20345;-53
2023/10/29 09:45:51;;;;;;;;;;;18.20;1.00;;;;;;4949917;28;19969;-55
2023/10/29 09:48:18;;;;;;;;;;;18.20;1.00;;;;;;4947060;28;19930;-53
2023/10/29 09:50:45;;;;;;;;;;;18.20;1.00;;;;;;4951048;29;20447;-56
2023/10/29 09:53:14;;;;;;;;;;;18.30;1.00;;;;;;4948846;29;19949;-51
2023/10/29 09:55:41;;;;;;;;;;;18.20;1.00;;;;;;4954788;29;20352;-55
2023/10/29 09:58:07;;;;;;;;;;;18.20;1.00;;;;;;4953784;28;19927;-51
2023/10/29 10:00:36;;;;;;;;;;;18.20;1.00;;;;;;4948785;28;20319;-52
2023/10/29 10:03:02;;;;;;;;;;;18.20;1.00;;;;;;4953057;28;19930;-51
2023/10/29 10:05:29;;;;;;;;;;;18.20;1.00;;;;;;4953968;29;19934;-51
2023/10/29 10:07:56;;;;;;;;;;;18.20;1.00;;;;;;4953227;28;19930;-53
2023/10/29 10:10:39;;;;;;;;;;;18.20;1.00;;;;;;4942343;29;20407;-51
2023/10/29 10:13:36;;;;;;;;;;;18.20;1.00;;;;;;4938528;29;20396;-54
2023/10/29 10:16:06;;;;;;;;;;;18.20;1.00;;;;;;4944658;28;19930;-52
2023/10/29 10:18:48;;;;;;;;;;;18.20;1.00;;;;;;4952733;28;19930;-55
2023/10/29 10:21:15;;;;;;;;;;;18.20;1.00;;;;;;4954555;28;20341;-52
2023/10/29 10:23:46;;;;;;;;;;;18.20;1.00;;;;;;4947362;28;19927;-55
2023/10/29 10:26:14;;;;;;;;;;;18.20;1.00;;;;;;4954151;28;19930;-55
2023/10/29 10:28:53;;;;;;;;;;;18.20;1.00;;;;;;4945853;28;19930;-54
2023/10/29 10:31:20;;;;;;;;;;;18.20;1.00;;;;;;4939339;28;19933;-55
2023/10/29 10:33:47;;;;;;;;;;;18.20;1.00;;;;;;4950852;28;19969;-53
2023/10/29 10:36:14;;;;;;;;;;;18.20;1.00;;;;;;4949563;28;19934;-52
2023/10/29 10:38:50;;;;;;;;;;;18.20;1.00;;;;;;4951488;28;20304;-57
2023/10/29 10:41:17;;;;;;;;;;;18.20;1.00;;;;;;4954394;29;19934;-56
2023/10/29 10:43:44;;;;;;;;;;;18.20;1.00;;;;;;4953768;29;19961;-54
2023/10/29 10:46:12;;;;;;;;;;;18.20;1.00;;;;;;4952679;29;19927;-53
2023/10/29 10:48:41;;;;;;;;;;;18.20;1.00;;;;;;4950380;28;20046;-57
2023/10/29 10:51:10;;;;;;;;;;;18.20;1.00;;;;;;4954943;28;19933;-57
2023/10/29 10:53:38;;;;;;;;;;;18.20;1.00;;;;;;4946751;29;20373;-54
2023/10/29 10:56:08;;;;;;;;;;;18.20;1.00;;;;;;4950677;28;19926;-55
2023/10/29 10:58:36;;;;;;;;;;;18.20;1.00;;;;;;4953260;29;19977;-56
2023/10/29 11:01:03;;;;;;;;;;;18.20;1.00;;;;;;4950793;28;19926;-51
2023/10/29 11:03:33;;;;;;;;;;;18.20;1.00;;;;;;4950991;28;19954;-53
2023/10/29 11:06:00;;;;;;;;;;;18.20;1.00;;;;;;4948461;28;19933;-56
2023/10/29 11:08:27;;;;;;;;;;;18.20;1.00;;;;;;4954127;28;19926;-51
2023/10/29 11:10:57;;;;;;;;;;;18.20;1.00;;;;;;4951870;28;19933;-53
2023/10/29 11:13:26;;;;;;;;;;;18.20;1.00;;;;;;4952857;28;19966;-51
2023/10/29 11:15:54;;;;;;;;;;;18.20;1.00;;;;;;4951749;28;20415;-51
2023/10/29 11:18:31;;;;;;;;;;;18.20;1.00;;;;;;4954555;28;19927;-56
2023/10/29 11:21:00;;;;;;;;;;;18.20;1.00;;;;;;4954337;28;19950;-54
2023/10/29 11:23:28;;;;;;;;;;;18.20;1.00;;;;;;4954266;28;20373;-53
2023/10/29 11:26:16;;;;;;;;;;;18.20;1.00;;;;;;4954169;28;19933;-51
2023/10/29 11:28:45;;;;;;;;;;;18.20;1.00;;;;;;4947568;29;20366;-53
2023/10/29 11:31:15;;;;;;;;;;;18.20;1.00;;;;;;4949869;29;20282;-53
2023/10/29 11:33:43;;;;;;;;;;;18.20;1.00;;;;;;4953940;29;19985;-52
2023/10/29 11:36:30;;;;;;;;;;;18.20;1.00;;;;;;4953521;28;19926;-53
2023/10/29 11:39:15;;;;;;;;;;;18.20;1.00;;;;;;4954036;29;19927;-53
2023/10/29 11:41:42;;;;;;;;;;;18.10;1.00;;;;;;4951594;28;19946;-55
2023/10/29 11:44:17;;;;;;;;;;;18.20;1.00;;;;;;4951011;28;20399;-53
2023/10/29 11:47:01;;;;;;;;;;;18.20;1.00;;;;;;4947379;29;20384;-53
2023/10/29 11:49:44;;;;;;;;;;;18.20;1.00;;;;;;4947545;28;19958;-53
2023/10/29 11:52:10;;;;;;;;;;;18.20;1.00;;;;;;4950168;29;19926;-54
2023/10/29 11:54:38;;;;;;;;;;;18.10;1.00;;;;;;4950605;28;19933;-54
2023/10/29 11:57:06;;;;;;;;;;;18.20;1.00;;;;;;4953336;29;19934;-54
2023/10/29 11:59:33;;;;;;;;;;;18.20;1.00;;;;;;4953801;28;20273;-56
2023/10/29 12:01:59;;;;;;;;;;;18.20;1.00;;;;;;4953618;29;19926;-55
2023/10/29 12:04:32;;;;;;;;;;;18.20;1.00;;;;;;4953516;28;19981;-54
2023/10/29 12:06:59;;;;;;;;;;;18.10;1.00;;;;;;4953539;28;19926;-56
2023/10/29 12:09:27;;;;;;;;;;;18.10;1.00;;;;;;4953599;29;20411;-51
2023/10/29 12:11:54;;;;;;;;;;;18.10;1.00;;;;;;4946453;28;19978;-51
2023/10/29 12:14:38;;;;;;;;;;;18.10;1.00;;;;;;4950449;28;19926;-54
2023/10/29 12:17:06;;;;;;;;;;;18.10;1.00;;;;;;4945394;28;20407;-54
2023/10/29 12:19:36;;;;;;;;;;;18.10;1.00;;;;;;4947389;29;20213;-55
2023/10/29 12:22:19;;;;;;;;;;;18.10;1.00;;;;;;4940515;28;20025;-50
2023/10/29 12:24:47;;;;;;;;;;;18.10;1.00;;;;;;4953254;28;19930;-52
2023/10/29 12:27:15;;;;;;;;;;;18.10;1.00;;;;;;4950702;29;20352;-54
2023/10/29 12:29:41;;;;;;;;;;;18.10;1.00;;;;;;4956508;28;19937;-56
2023/10/29 12:32:18;;;;;;;;;;;18.10;1.00;;;;;;4955688;29;20011;-55
2023/10/29 12:34:50;;;;;;;;;;;18.20;1.00;;;;;;4956688;29;19934;-55
2023/10/29 12:37:20;;;;;;;;;;;18.20;1.00;;;;;;4956694;28;20288;-55
2023/10/29 12:39:48;;;;;;;;;;;18.20;1.00;;;;;;4956714;28;19927;-56
2023/10/29 12:42:14;;;;;;;;;;;18.20;1.00;;;;;;4956624;28;20300;-54
2023/10/29 12:44:51;;;;;;;;;;;18.20;1.00;;;;;;4956617;29;19927;-55
2023/10/29 12:47:19;;;;;;;;;;;18.20;1.00;;;;;;4956547;28;19985;-52
2023/10/29 12:49:58;;;;;;;;;;;18.20;1.00;;;;;;4956554;28;19926;-56
2023/10/29 12:52:27;;;;;;;;;;;18.20;1.00;;;;;;4956539;28;19927;-52
2023/10/29 12:54:54;;;;;;;;;;;18.20;1.00;;;;;;4956357;28;20005;-55
2023/10/29 12:57:22;;;;;;;;;;;18.30;1.00;;;;;;4956315;28;19927;-54
2023/10/29 12:59:48;;;;;;;;;;;18.30;1.00;;;;;;4956481;28;20365;-54
2023/10/29 13:02:27;;;;;;;;;;;18.30;1.00;;;;;;4956240;29;19927;-53
2023/10/29 13:04:54;;;;;;;;;;;18.30;1.00;;;;;;4953624;28;19926;-53
2023/10/29 13:07:22;;;;;;;;;;;18.30;1.00;;;;;;4956033;28;19926;-55
2023/10/29 13:09:51;;;;;;;;;;;18.30;1.00;;;;;;4950667;28;19974;-54
2023/10/29 13:12:18;;;;;;;;;;;18.30;1.00;;;;;;4960106;28;20089;-56
2023/10/29 13:14:46;;;;;;;;;;;18.30;1.00;;;;;;4955846;28;19927;-53
2023/10/29 13:17:16;;;;;;;;;;;18.40;1.00;;;;;;4956088;28;19930;-56
2023/10/29 13:19:43;;;;;;;;;;;18.40;1.00;;;;;;4953501;28;20328;-51
2023/10/29 13:22:10;;;;;;;;;;;18.40;1.00;;;;;;4956004;28;19973;-53
2023/10/29 13:24:37;;;;;;;;;;;18.40;1.00;;;;;;4955651;28;20025;-53
2023/10/29 13:27:06;;;;;;;;;;;18.40;1.00;;;;;;4955969;28;20394;-53
2023/10/29 13:29:36;;;;;;;;;;;18.40;1.00;;;;;;4955816;28;20393;-56
2023/10/29 13:32:03;;;;;;;;;;;18.40;1.00;;;;;;4955202;29;19949;-53
2023/10/29 13:34:30;;;;;;;;;;;18.40;1.00;;;;;;4955873;28;19927;-55
2023/10/29 13:36:57;;;;;;;;;;;18.40;1.00;;;;;;4951461;29;19927;-54
2023/10/29 13:39:24;;;;;;;;;;;18.40;1.00;;;;;;4950364;29;20013;-51
2023/10/29 13:41:51;;;;;;;;;;;18.40;1.00;;;;;;4955456;28;19926;-53
2023/10/29 13:44:17;;;;;;;;;;;18.40;1.00;;;;;;4955797;28;19926;-51
2023/10/29 13:46:44;;;;;;;;;;;18.40;1.00;;;;;;4955644;28;19927;-51
2023/10/29 13:49:11;;;;;;;;;;;18.40;1.00;;;;;;4955568;29;19940;-52
2023/10/29 13:51:38;;;;;;;;;;;18.40;1.00;;;;;;4956926;28;20285;-53
2023/10/29 13:54:05;;;;;;;;;;;18.40;1.00;;;;;;4955237;28;19934;-55
2023/10/29 13:56:32;;;;;;;;;;;18.40;1.00;;;;;;4952078;28;20325;-55
2023/10/29 13:58:58;;;;;;;;;;;18.40;1.00;;;;;;4955257;28;19961;-56
2023/10/29 14:01:25;;;;;;;;;;;18.40;1.00;;;;;;4945220;29;20423;-54
2023/10/29 14:03:52;;;;;;;;;;;18.40;1.00;;;;;;4950748;29;19974;-51
2023/10/29 14:06:19;;;;;;;;;;;18.50;1.00;;;;;;4945931;28;19973;-50
2023/10/29 14:08:46;;;;;;;;;;;18.40;1.00;;;;;;4952130;29;19926;-50
2023/10/29 14:11:14;;;;;;;;;;;18.40;1.00;;;;;;4955037;29;20315;-55
2023/10/29 14:13:42;;;;;;;;;;;18.40;1.00;;;;;;4954935;28;20017;-54
2023/10/29 14:16:12;;;;;;;;;;;18.40;1.00;;;;;;4954184;28;19927;-52
2023/10/29 14:18:40;;;;;;;;;;;18.40;1.00;;;;;;4955037;28;19926;-54
2023/10/29 14:21:07;;;;;;;;;;;18.40;1.00;;;;;;4954952;28;20475;-51
2023/10/29 14:23:34;;;;;;;;;;;18.40;1.00;;;;;;4954845;29;20369;-54
2023/10/29 14:26:01;;;;;;;;;;;18.40;1.00;;;;;;4954871;29;19933;-53
2023/10/29 14:28:28;;;;;;;;;;;18.40;1.00;;;;;;4954981;28;20296;-51
2023/10/29 14:30:55;;;;;;;;;;;18.40;1.00;;;;;;4952994;29;20344;-55
2023/10/29 14:33:22;;;;;;;;;;;18.40;1.00;;;;;;4945983;29;19974;-53
2023/10/29 14:35:56;;;;;;;;;;;18.40;1.00;;;;;;4955283;29;19927;-55